Time;durP1;ratioP1;P1;durP2;ratioP2;P2;SDS_P1;SDS_P2;PMS_P1;PMS_P2;Temp;Humidity;BMP_temperature;BMP_pressure;BME280_temperature;BME280_humidity;BME280_pressure;Samples;Min_cycle;Max_cycle;Signal;HPM_P1;HPM_P2
2021/11/01 00:02:08;;;;;;;10.00;2.05;;;;;;;;;;4994136;28;20199;-83
2021/11/01 00:04:37;;;;;;;16.10;2.63;;;;;;;;;;4995158;28;20636;-83
2021/11/01 00:07:03;;;;;;;15.13;2.70;;;;;;;;;;4995127;28;20406;-82
2021/11/01 00:09:29;;;;;;;6.75;2.25;;;;;;;;;;4993848;28;20613;-83
2021/11/01 00:11:56;;;;;;;6.05;2.30;;;;;;;;;;4994601;28;20738;-82
2021/11/01 00:14:22;;;;;;;8.20;1.85;;;;;;;;;;4993676;28;20188;-83
2021/11/01 00:16:49;;;;;;;8.60;1.90;;;;;;;;;;4995048;28;20210;-83
2021/11/01 00:19:15;;;;;;;10.95;2.17;;;;;;;;;;4993677;28;20222;-82
2021/11/01 00:21:41;;;;;;;7.28;1.95;;;;;;;;;;4994515;28;20253;-82
2021/11/01 00:24:07;;;;;;;8.90;2.22;;;;;;;;;;4994789;28;20176;-83
2021/11/01 00:26:33;;;;;;;9.15;2.17;;;;;;;;;;4981573;28;20271;-82
2021/11/01 00:29:03;;;;;;;10.68;1.80;;;;;;;;;;4975312;28;20194;-83
2021/11/01 00:31:29;;;;;;;12.88;2.75;;;;;;;;;;4975040;28;20245;-82
2021/11/01 00:33:55;;;;;;;12.95;2.58;;;;;;;;;;4975168;28;20283;-83
2021/11/01 00:36:21;;;;;;;7.68;1.92;;;;;;;;;;4990183;28;20187;-83
2021/11/01 00:38:48;;;;;;;12.60;2.30;;;;;;;;;;4974867;28;20212;-82
2021/11/01 00:41:15;;;;;;;13.10;2.17;;;;;;;;;;4974776;28;20190;-83
2021/11/01 00:43:41;;;;;;;9.15;2.10;;;;;;;;;;4975250;28;20525;-82
2021/11/01 00:46:07;;;;;;;4.72;1.70;;;;;;;;;;4974898;28;20177;-83
2021/11/01 00:48:33;;;;;;;9.45;2.05;;;;;;;;;;4975038;28;20183;-81
2021/11/01 00:50:59;;;;;;;9.80;2.30;;;;;;;;;;4974687;28;20199;-83
2021/11/01 00:53:30;;;;;;;11.32;2.28;;;;;;;;;;4974870;28;20198;-83
2021/11/01 00:55:57;;;;;;;8.45;2.50;;;;;;;;;;4974832;28;20167;-84
2021/11/01 00:58:24;;;;;;;11.85;2.50;;;;;;;;;;4974891;28;20230;-82
2021/11/01 01:00:50;;;;;;;8.25;2.00;;;;;;;;;;5000402;28;20179;-82
2021/11/01 01:03:16;;;;;;;12.68;3.13;;;;;;;;;;4976401;28;20206;-82
2021/11/01 01:05:43;;;;;;;8.27;1.48;;;;;;;;;;4992734;28;20332;-83
2021/11/01 01:08:09;;;;;;;12.13;2.60;;;;;;;;;;4992487;28;20637;-81
2021/11/01 01:10:35;;;;;;;10.93;2.60;;;;;;;;;;4994072;28;20179;-82
2021/11/01 01:13:01;;;;;;;9.27;1.60;;;;;;;;;;4993402;28;20205;-82
2021/11/01 01:15:29;;;;;;;12.03;2.00;;;;;;;;;;4993942;28;20547;-81
2021/11/01 01:18:03;;;;;;;11.20;2.20;;;;;;;;;;4994025;28;20566;-82
2021/11/01 01:20:29;;;;;;;10.52;2.15;;;;;;;;;;4993995;28;20170;-83
2021/11/01 01:22:55;;;;;;;10.48;2.17;;;;;;;;;;4991528;28;20203;-82
2021/11/01 01:25:30;;;;;;;11.07;2.35;;;;;;;;;;4993840;28;20232;-83
2021/11/01 01:27:56;;;;;;;9.70;2.13;;;;;;;;;;4994023;28;20194;-82
2021/11/01 01:30:24;;;;;;;14.43;3.00;;;;;;;;;;4993747;28;20245;-84
2021/11/01 01:32:50;;;;;;;8.95;2.17;;;;;;;;;;4993668;28;20290;-82
2021/11/01 01:35:17;;;;;;;6.55;1.80;;;;;;;;;;4993943;28;20174;-82
2021/11/01 01:37:43;;;;;;;5.00;2.00;;;;;;;;;;4992559;28;20193;-82
2021/11/01 01:40:11;;;;;;;5.35;1.88;;;;;;;;;;4993731;28;20250;-82
2021/11/01 01:42:38;;;;;;;14.70;2.30;;;;;;;;;;4993428;28;20647;-82
2021/11/01 01:45:04;;;;;;;11.80;2.13;;;;;;;;;;4992669;28;20647;-82
2021/11/01 01:47:30;;;;;;;14.20;2.60;;;;;;;;;;4993878;28;20175;-82
2021/11/01 01:49:56;;;;;;;18.90;3.03;;;;;;;;;;4992577;28;20229;-82
2021/11/01 01:52:22;;;;;;;12.63;2.17;;;;;;;;;;4992098;28;20298;-82
2021/11/01 01:54:49;;;;;;;12.98;3.22;;;;;;;;;;4993722;28;20430;-82
2021/11/01 01:57:15;;;;;;;12.88;2.40;;;;;;;;;;4993658;28;20193;-83
2021/11/01 01:59:43;;;;;;;9.88;2.40;;;;;;;;;;4991378;28;20211;-83
2021/11/01 02:02:09;;;;;;;10.20;2.53;;;;;;;;;;4974155;28;20641;-83
2021/11/01 02:04:37;;;;;;;10.55;1.65;;;;;;;;;;4957005;28;20239;-83
2021/11/01 02:07:18;;;;;;;7.57;2.25;;;;;;;;;;4973900;28;20311;-82
2021/11/01 02:10:03;;;;;;;11.07;2.13;;;;;;;;;;4974273;28;20271;-83
2021/11/01 02:12:32;;;;;;;9.35;2.50;;;;;;;;;;4973789;28;20209;-83
2021/11/01 02:15:02;;;;;;;7.30;2.17;;;;;;;;;;4974207;28;20187;-83
2021/11/01 02:17:30;;;;;;;8.70;2.50;;;;;;;;;;4989055;28;20277;-83
2021/11/01 02:19:58;;;;;;;6.97;2.22;;;;;;;;;;4988911;28;20212;-83
2021/11/01 02:22:33;;;;;;;9.40;4.18;;;;;;;;;;4973676;28;20533;-83
2021/11/01 02:25:03;;;;;;;14.02;3.05;;;;;;;;;;4991411;28;20203;-83
2021/11/01 02:27:32;;;;;;;11.50;3.10;;;;;;;;;;4992663;28;20619;-83
2021/11/01 02:29:59;;;;;;;9.57;2.78;;;;;;;;;;4981018;28;20234;-83
2021/11/01 02:32:26;;;;;;;9.55;3.72;;;;;;;;;;4994899;28;20222;-83
2021/11/01 02:34:53;;;;;;;7.40;2.40;;;;;;;;;;4996476;28;20740;-83
2021/11/01 02:37:19;;;;;;;12.05;4.10;;;;;;;;;;4996754;28;20226;-83
2021/11/01 02:39:46;;;;;;;6.00;2.95;;;;;;;;;;4996805;28;20203;-83
2021/11/01 02:42:13;;;;;;;7.05;3.00;;;;;;;;;;5002319;28;20202;-83
2021/11/01 02:44:49;;;;;;;9.90;2.60;;;;;;;;;;4996782;28;20547;-83
2021/11/01 02:47:15;;;;;;;8.50;2.90;;;;;;;;;;4996798;28;20550;-83
2021/11/01 02:49:41;;;;;;;11.85;2.47;;;;;;;;;;4996686;28;20179;-83
2021/11/01 02:52:07;;;;;;;7.17;2.20;;;;;;;;;;4995191;28;20207;-84
2021/11/01 02:54:33;;;;;;;10.23;2.80;;;;;;;;;;4995424;28;20437;-83
2021/11/01 02:57:00;;;;;;;5.60;1.93;;;;;;;;;;4996477;28;20178;-84
2021/11/01 02:59:26;;;;;;;9.63;2.75;;;;;;;;;;4996673;28;20477;-83
2021/11/01 03:01:52;;;;;;;11.35;2.83;;;;;;;;;;4978556;28;20742;-84
2021/11/01 03:04:19;;;;;;;10.40;1.88;;;;;;;;;;4995213;28;20202;-85
2021/11/01 03:06:45;;;;;;;2.28;1.65;;;;;;;;;;4995104;28;20195;-84
2021/11/01 03:09:11;;;;;;;8.32;1.92;;;;;;;;;;4996168;28;20187;-84
2021/11/01 03:11:37;;;;;;;8.68;1.70;;;;;;;;;;4995976;28;20195;-84
2021/11/01 03:14:03;;;;;;;8.00;2.55;;;;;;;;;;4994926;28;20262;-84
2021/11/01 03:16:30;;;;;;;12.35;2.30;;;;;;;;;;4995059;28;20203;-84
2021/11/01 03:19:00;;;;;;;7.47;2.03;;;;;;;;;;4996175;28;20204;-84
2021/11/01 03:21:27;;;;;;;7.82;2.22;;;;;;;;;;4995690;28;20199;-83
2021/11/01 03:23:54;;;;;;;5.68;2.00;;;;;;;;;;4996059;28;20181;-84
2021/11/01 03:26:22;;;;;;;7.50;2.42;;;;;;;;;;4996059;28;20571;-84
2021/11/01 03:28:50;;;;;;;8.05;2.25;;;;;;;;;;4995963;28;20262;-84
2021/11/01 03:31:17;;;;;;;6.65;2.28;;;;;;;;;;4995428;28;20201;-84
2021/11/01 03:33:44;;;;;;;12.23;2.25;;;;;;;;;;4994605;28;20656;-84
2021/11/01 03:36:11;;;;;;;6.47;2.00;;;;;;;;;;4995440;28;20262;-84
2021/11/01 03:38:38;;;;;;;8.77;2.40;;;;;;;;;;4996091;28;20659;-83
2021/11/01 03:41:10;;;;;;;5.82;1.88;;;;;;;;;;4997401;28;20186;-83
2021/11/01 03:43:43;;;;;;;10.57;2.90;;;;;;;;;;4998901;28;20545;-83
2021/11/01 03:46:09;;;;;;;10.88;2.70;;;;;;;;;;4997183;28;20191;-84
2021/11/01 03:48:38;;;;;;;12.23;2.63;;;;;;;;;;4994318;28;20175;-84
2021/11/01 03:51:11;;;;;;;6.32;2.20;;;;;;;;;;4995201;28;20175;-84
2021/11/01 03:53:38;;;;;;;8.60;1.80;;;;;;;;;;4995221;28;20192;-84
2021/11/01 03:56:05;;;;;;;8.63;2.58;;;;;;;;;;4995424;28;20175;-84
2021/11/01 03:58:31;;;;;;;12.32;2.80;;;;;;;;;;4995389;28;20215;-84
2021/11/01 04:00:57;;;;;;;10.23;3.45;;;;;;;;;;4993768;28;20179;-84
2021/11/01 04:03:24;;;;;;;6.72;2.05;;;;;;;;;;4995286;28;20211;-85
2021/11/01 04:05:54;;;;;;;5.05;2.22;;;;;;;;;;4994529;28;20178;-84
2021/11/01 04:08:21;;;;;;;3.72;1.90;;;;;;;;;;4994013;28;20202;-84
2021/11/01 04:10:48;;;;;;;10.15;2.47;;;;;;;;;;4993406;28;20180;-84
2021/11/01 04:13:14;;;;;;;8.15;2.03;;;;;;;;;;4994823;28;20742;-84
2021/11/01 04:15:45;;;;;;;7.28;1.98;;;;;;;;;;4994583;28;20551;-85
2021/11/01 04:18:17;;;;;;;4.32;1.80;;;;;;;;;;4995038;28;20250;-84
2021/11/01 04:20:52;;;;;;;4.38;1.70;;;;;;;;;;4995057;28;20164;-85
2021/11/01 04:23:20;;;;;;;7.68;1.70;;;;;;;;;;4994934;28;20277;-84
2021/11/01 04:25:46;;;;;;;8.13;2.50;;;;;;;;;;4995114;28;20202;-85
2021/11/01 04:28:13;;;;;;;8.95;2.30;;;;;;;;;;4995189;28;20183;-84
2021/11/01 04:30:41;;;;;;;5.68;1.80;;;;;;;;;;4993818;28;20227;-85
2021/11/01 04:33:11;;;;;;;6.45;1.80;;;;;;;;;;4993729;28;20246;-84
2021/11/01 04:35:38;;;;;;;7.25;1.80;;;;;;;;;;4995207;28;20172;-85
2021/11/01 04:38:26;;;;;;;6.88;1.90;;;;;;;;;;4984348;28;20267;-85
2021/11/01 04:54:10;;;;;;;9.25;2.00;;;;;;;;;;4994846;28;20175;-84
2021/11/01 04:56:37;;;;;;;4.65;1.75;;;;;;;;;;5009650;28;20184;-84
2021/11/01 04:59:03;;;;;;;12.35;2.25;;;;;;;;;;4994603;28;20256;-84
2021/11/01 05:01:39;;;;;;;17.33;2.88;;;;;;;;;;4994434;28;20187;-84
2021/11/01 05:04:11;;;;;;;7.22;2.25;;;;;;;;;;4994499;28;20155;-85
2021/11/01 05:06:42;;;;;;;8.15;1.85;;;;;;;;;;4994683;28;20152;-85
2021/11/01 05:09:15;;;;;;;7.70;1.80;;;;;;;;;;4994544;28;20191;-84
2021/11/01 05:11:57;;;;;;;5.28;2.17;;;;;;;;;;4993992;28;20654;-85
2021/11/01 05:18:00;;;;;;;4.95;1.67;;;;;;;;;;4986256;28;20653;-85
2021/11/01 05:23:03;;;;;;;8.05;2.13;;;;;;;;;;4994317;28;20207;-85
2021/11/01 05:25:37;;;;;;;7.15;2.03;;;;;;;;;;4996142;28;20266;-84
2021/11/01 05:30:54;;;;;;;9.68;2.25;;;;;;;;;;4994901;28;20195;-84
2021/11/01 05:35:55;;;;;;;9.27;2.10;;;;;;;;;;4995096;28;20171;-85
2021/11/01 05:38:21;;;;;;;8.60;2.17;;;;;;;;;;5000025;28;20282;-85
2021/11/01 05:40:47;;;;;;;15.10;2.25;;;;;;;;;;5016978;28;20426;-85
2021/11/01 05:43:13;;;;;;;3.43;1.73;;;;;;;;;;4993583;28;20199;-85
2021/11/01 05:45:39;;;;;;;10.27;1.60;;;;;;;;;;5008995;28;20458;-85
2021/11/01 05:48:05;;;;;;;4.10;1.60;;;;;;;;;;4993836;28;20211;-85
2021/11/01 05:50:34;;;;;;;11.02;2.10;;;;;;;;;;4993716;28;20760;-86
2021/11/01 05:53:02;;;;;;;7.38;1.52;;;;;;;;;;4993588;28;20195;-85
2021/11/01 06:03:16;;;;;;;6.43;1.50;;;;;;;;;;4997244;28;20206;-86
2021/11/01 06:15:55;;;;;;;7.95;1.88;;;;;;;;;;4997101;28;20175;-86
2021/11/01 06:18:26;;;;;;;7.32;1.38;;;;;;;;;;4997893;28;20287;-86
2021/11/01 06:20:52;;;;;;;12.10;2.60;;;;;;;;;;4997616;28;20251;-86
2021/11/01 06:23:18;;;;;;;10.68;1.73;;;;;;;;;;5005857;28;20231;-86
2021/11/01 06:25:45;;;;;;;7.53;1.70;;;;;;;;;;4997568;28;20181;-88
2021/11/01 06:28:14;;;;;;;5.50;1.60;;;;;;;;;;4999400;28;20185;-87
2021/11/01 06:30:46;;;;;;;18.38;2.50;;;;;;;;;;4980431;28;20628;-86
2021/11/01 06:41:31;;;;;;;6.72;1.95;;;;;;;;;;4995333;28;20249;-87
2021/11/01 06:57:49;;;;;;;5.50;1.50;;;;;;;;;;4984900;28;20184;-86
2021/11/01 07:25:30;;;;;;;4.85;1.67;;;;;;;;;;4996298;28;20180;-86
2021/11/01 09:04:36;;;;;;;5.55;1.70;;;;;;;;;;4994254;28;20207;-80
2021/11/01 09:10:09;;;;;;;5.93;2.20;;;;;;;;;;4994117;28;20197;-81
2021/11/01 09:26:27;;;;;;;4.70;1.30;;;;;;;;;;4993885;28;20206;-80
2021/11/01 09:37:04;;;;;;;2.23;1.13;;;;;;;;;;5000808;28;20918;-81
2021/11/01 09:39:44;;;;;;;6.90;1.30;;;;;;;;;;5015376;28;20466;-81
2021/11/01 09:42:11;;;;;;;2.57;0.83;;;;;;;;;;4998993;28;20415;-81
2021/11/01 09:44:37;;;;;;;8.77;1.30;;;;;;;;;;5000374;28;20406;-81
2021/11/01 09:47:04;;;;;;;4.40;1.07;;;;;;;;;;5015345;28;20434;-80
2021/11/01 09:49:31;;;;;;;4.53;1.57;;;;;;;;;;5015216;28;20425;-80
2021/11/01 09:51:58;;;;;;;5.63;1.13;;;;;;;;;;5000074;28;20865;-81
2021/11/01 09:54:26;;;;;;;2.43;1.00;;;;;;;;;;5000262;28;20463;-81
2021/11/01 09:56:59;;;;;;;5.57;1.10;;;;;;;;;;5000392;28;20437;-81
2021/11/01 09:59:29;;;;;;;5.10;1.27;;;;;;;;;;5001015;28;20576;-80
2021/11/01 10:01:56;;;;;;;2.07;0.80;;;;;;;;;;5015970;28;20521;-82
2021/11/01 10:04:27;;;;;;;2.63;1.17;;;;;;;;;;5016456;28;20411;-80
2021/11/01 10:07:15;;;;;;;4.60;1.47;;;;;;;;;;5015925;28;20821;-81
2021/11/01 10:09:42;;;;;;;4.97;1.10;;;;;;;;;;5016210;28;20430;-81
2021/11/01 10:12:12;;;;;;;3.97;1.00;;;;;;;;;;4999835;28;20426;-82
2021/11/01 10:14:51;;;;;;;4.87;1.07;;;;;;;;;;5000442;28;20402;-82
2021/11/01 10:17:34;;;;;;;2.50;0.90;;;;;;;;;;5003065;28;20412;-81
2021/11/01 10:20:02;;;;;;;3.83;1.13;;;;;;;;;;5016333;28;20977;-82
2021/11/01 10:22:38;;;;;;;5.50;1.33;;;;;;;;;;4995016;28;20427;-82
2021/11/01 10:25:14;;;;;;;4.53;1.27;;;;;;;;;;4979420;28;20418;-81
2021/11/01 10:27:41;;;;;;;3.30;1.07;;;;;;;;;;4979838;28;20798;-82
2021/11/01 10:30:10;;;;;;;4.67;1.07;;;;;;;;;;4980481;28;20441;-82
2021/11/01 10:32:44;;;;;;;1.73;1.03;;;;;;;;;;4980348;28;20425;-81
2021/11/01 10:35:22;;;;;;;4.43;1.10;;;;;;;;;;4982055;28;20393;-82
2021/11/01 10:37:57;;;;;;;2.90;1.00;;;;;;;;;;4981514;28;20398;-81
2021/11/01 10:40:26;;;;;;;3.37;1.30;;;;;;;;;;4981530;28;20457;-81
2021/11/01 10:42:52;;;;;;;3.73;1.20;;;;;;;;;;4979635;28;20519;-80
2021/11/01 11:10:49;;;;;;;3.63;0.90;;;;;;;;;;4979780;28;20462;-81
2021/11/01 11:13:15;;;;;;;3.43;0.87;;;;;;;;;;4979846;28;20535;-81
2021/11/01 11:15:42;;;;;;;1.20;0.63;;;;;;;;;;4963553;28;20430;-80
2021/11/01 11:18:45;;;;;;;1.73;0.87;;;;;;;;;;4980740;28;20407;-80
2021/11/01 11:21:18;;;;;;;2.37;0.90;;;;;;;;;;4978949;28;20420;-80
2021/11/01 11:42:21;;;;;;;2.53;1.10;;;;;;;;;;4955759;28;20475;-81
2021/11/01 11:43:37;;;;;;;2.87;0.90;;;;;;;;;;4974878;28;20474;-81
2021/11/01 11:49:03;;;;;;;1.37;0.80;;;;;;;;;;4977620;28;20494;-81
2021/11/01 11:51:29;;;;;;;2.60;0.90;;;;;;;;;;4976496;28;20756;-80
2021/11/01 11:53:57;;;;;;;2.07;0.80;;;;;;;;;;4976065;28;20487;-81
2021/11/01 11:56:29;;;;;;;2.53;0.90;;;;;;;;;;4978681;28;20744;-80
2021/11/01 11:58:58;;;;;;;2.10;0.80;;;;;;;;;;4979215;28;20581;-80
2021/11/01 12:01:25;;;;;;;2.73;0.97;;;;;;;;;;4975431;28;20412;-80
2021/11/01 12:03:52;;;;;;;3.10;1.10;;;;;;;;;;4978726;28;20404;-80
2021/11/01 12:06:22;;;;;;;3.30;1.00;;;;;;;;;;4977337;28;20416;-80
2021/11/01 12:09:03;;;;;;;5.57;0.93;;;;;;;;;;4980647;28;20416;-80
2021/11/01 12:11:37;;;;;;;3.07;0.87;;;;;;;;;;4978702;28;20451;-82
2021/11/01 12:14:32;;;;;;;2.87;0.93;;;;;;;;;;4960910;28;20449;-79
2021/11/01 12:17:06;;;;;;;3.27;1.53;;;;;;;;;;4974991;28;20478;-82
2021/11/01 12:19:32;;;;;;;2.70;0.80;;;;;;;;;;4960333;28;20449;-82
2021/11/01 12:22:02;;;;;;;2.00;0.77;;;;;;;;;;4974621;28;20785;-82
2021/11/01 12:24:28;;;;;;;3.03;0.70;;;;;;;;;;4975937;28;20878;-81
2021/11/01 12:27:02;;;;;;;2.00;0.80;;;;;;;;;;4975320;28;20382;-81
2021/11/01 12:29:28;;;;;;;2.00;0.87;;;;;;;;;;4977598;28;20442;-81
2021/11/01 12:32:08;;;;;;;2.00;1.20;;;;;;;;;;4977485;28;20428;-82
2021/11/01 12:34:38;;;;;;;1.67;0.97;;;;;;;;;;4977085;28;20403;-80
2021/11/01 12:37:11;;;;;;;2.30;0.80;;;;;;;;;;4976809;28;20843;-80
2021/11/01 12:39:44;;;;;;;1.90;0.80;;;;;;;;;;4976111;28;20430;-80
2021/11/01 12:42:39;;;;;;;3.30;1.00;;;;;;;;;;4975720;28;20868;-80
2021/11/01 12:58:53;;;;;;;3.33;1.00;;;;;;;;;;4976570;28;20795;-81
2021/11/01 13:01:21;;;;;;;4.43;0.90;;;;;;;;;;4976561;28;20408;-80
2021/11/01 13:03:56;;;;;;;3.00;1.30;;;;;;;;;;4977315;28;20461;-81
2021/11/01 13:06:27;;;;;;;4.90;0.90;;;;;;;;;;4977958;28;20404;-80
2021/11/01 13:08:56;;;;;;;2.20;0.97;;;;;;;;;;4975117;28;20883;-80
2021/11/01 13:11:40;;;;;;;5.60;1.07;;;;;;;;;;4975037;28;20420;-80
2021/11/01 13:19:47;;;;;;;3.90;0.77;;;;;;;;;;4973462;28;20559;-80
2021/11/01 13:22:21;;;;;;;2.97;1.00;;;;;;;;;;4972894;28;20439;-80
2021/11/01 13:27:32;;;;;;;5.03;1.37;;;;;;;;;;4974150;28;20428;-81
2021/11/01 13:35:29;;;;;;;4.20;1.30;;;;;;;;;;4973395;28;20595;-80
2021/11/01 13:37:56;;;;;;;2.63;1.47;;;;;;;;;;4972188;28;20424;-80
2021/11/01 13:40:22;;;;;;;3.70;1.37;;;;;;;;;;4973059;28;20437;-80
2021/11/01 13:42:57;;;;;;;6.90;1.77;;;;;;;;;;4973500;28;20812;-81
2021/11/01 13:45:23;;;;;;;9.43;5.30;;;;;;;;;;4973138;28;20478;-81
2021/11/01 13:47:55;;;;;;;3.73;0.80;;;;;;;;;;4973083;28;20406;-80
2021/11/01 13:50:25;;;;;;;3.63;0.90;;;;;;;;;;4973078;28;20419;-80
2021/11/01 13:53:05;;;;;;;1.53;0.97;;;;;;;;;;4973752;28;20466;-81
2021/11/01 13:58:33;;;;;;;3.57;1.10;;;;;;;;;;4973407;28;20498;-79
2021/11/01 14:01:25;;;;;;;4.00;0.93;;;;;;;;;;4971935;28;20547;-80
2021/11/01 14:35:55;;;;;;;2.80;0.90;;;;;;;;;;4995811;28;20968;-79
2021/11/01 14:55:43;;;;;;;2.80;1.37;;;;;;;;;;4996186;28;20465;-80
2021/11/01 15:08:41;;;;;;;3.43;1.73;;;;;;;;;;4996052;28;20473;-79
2021/11/01 15:16:29;;;;;;;3.23;1.10;;;;;;;;;;4998255;28;20389;-80
2021/11/01 15:21:39;;;;;;;5.20;1.00;;;;;;;;;;4999826;28;20459;-79
2021/11/01 15:24:27;;;;;;;2.07;1.27;;;;;;;;;;4995135;28;20446;-79
2021/11/01 16:15:52;;;;;;;6.43;2.30;;;;;;;;;;4992959;28;20512;-78
2021/11/01 16:18:14;;;;;;;4.30;2.63;;;;;;;;;;4994151;28;20435;-79
2021/11/01 16:20:40;;;;;;;6.47;2.73;;;;;;;;;;4994397;28;20478;-78
2021/11/01 16:23:24;;;;;;;7.63;4.50;;;;;;;;;;4994539;28;20529;-78
2021/11/01 16:25:56;;;;;;;4.60;3.03;;;;;;;;;;4995047;28;20426;-78
2021/11/01 16:28:22;;;;;;;4.03;2.27;;;;;;;;;;4993677;28;20469;-78
2021/11/01 16:31:23;;;;;;;3.17;2.00;;;;;;;;;;4993862;28;20437;-78
2021/11/01 16:33:42;;;;;;;8.90;2.77;;;;;;;;;;4992652;28;20446;-79
2021/11/01 16:36:11;;;;;;;6.63;3.70;;;;;;;;;;4994133;28;20444;-79
2021/11/01 16:38:50;;;;;;;7.03;3.28;;;;;;;;;;4993820;28;20427;-79
2021/11/01 16:41:17;;;;;;;4.33;2.10;;;;;;;;;;4989214;28;20202;-80
2021/11/01 16:43:43;;;;;;;4.80;2.07;;;;;;;;;;4992817;28;20428;-79
2021/11/01 16:46:09;;;;;;;4.43;2.10;;;;;;;;;;4993450;28;20857;-79
2021/11/01 16:48:35;;;;;;;4.00;2.27;;;;;;;;;;4993023;28;20180;-79
2021/11/01 16:51:02;;;;;;;5.35;2.75;;;;;;;;;;4993779;28;20985;-79
2021/11/01 16:53:28;;;;;;;7.17;2.73;;;;;;;;;;4992951;28;20702;-79
2021/11/01 16:56:04;;;;;;;6.60;3.97;;;;;;;;;;4993099;28;20419;-79
2021/11/01 16:58:41;;;;;;;13.13;3.30;;;;;;;;;;4993089;28;20428;-79
2021/11/01 17:01:11;;;;;;;9.25;2.70;;;;;;;;;;4991024;28;20456;-79
2021/11/01 17:03:43;;;;;;;6.47;2.77;;;;;;;;;;4975544;28;20214;-80
2021/11/01 17:06:28;;;;;;;7.63;3.35;;;;;;;;;;4992236;28;20450;-79
2021/11/01 17:22:29;;;;;;;4.03;2.17;;;;;;;;;;4994173;28;20269;-80
2021/11/01 17:25:10;;;;;;;6.13;2.13;;;;;;;;;;4994540;28;20179;-79
2021/11/01 17:30:43;;;;;;;4.68;1.90;;;;;;;;;;4994139;28;20246;-78
2021/11/01 17:36:12;;;;;;;3.88;1.52;;;;;;;;;;4992527;28;20198;-79
2021/11/01 18:40:08;;;;;;;7.00;2.53;;;;;;;;;;4994662;28;20225;-79
2021/11/01 18:43:03;;;;;;;4.05;2.05;;;;;;;;;;4993600;28;20577;-79
2021/11/01 18:51:06;;;;;;;7.60;2.22;;;;;;;;;;4995185;28;20202;-80
2021/11/01 18:53:39;;;;;;;4.13;1.90;;;;;;;;;;4995361;28;20191;-80
2021/11/01 18:56:06;;;;;;;5.82;2.50;;;;;;;;;;4994555;28;20556;-80
2021/11/01 18:58:34;;;;;;;3.15;2.10;;;;;;;;;;4996930;28;20533;-80
2021/11/01 19:01:01;;;;;;;8.70;1.70;;;;;;;;;;4996050;28;20591;-78
2021/11/01 19:03:30;;;;;;;3.42;1.60;;;;;;;;;;4994259;28;20199;-77
2021/11/01 19:11:48;;;;;;;14.15;7.13;;;;;;;;;;4994201;28;20241;-77
2021/11/01 21:26:11;;;;;;;4.85;2.10;;;;;;;;;;4992372;28;20214;-78
2021/11/01 21:28:40;;;;;;;7.22;1.92;;;;;;;;;;4991404;28;20179;-78
2021/11/01 21:31:06;;;;;;;7.43;2.53;;;;;;;;;;4990539;28;20222;-78
2021/11/01 21:33:34;;;;;;;5.40;2.10;;;;;;;;;;4992348;28;20206;-77
2021/11/01 21:36:06;;;;;;;4.88;1.85;;;;;;;;;;4991125;28;20191;-78
2021/11/01 21:38:32;;;;;;;4.65;2.35;;;;;;;;;;4992360;28;20186;-77
2021/11/01 21:40:59;;;;;;;4.97;2.00;;;;;;;;;;4991507;28;20183;-78
2021/11/01 21:43:25;;;;;;;2.90;1.75;;;;;;;;;;4974445;28;20582;-78
2021/11/01 21:45:51;;;;;;;2.90;2.05;;;;;;;;;;4991924;28;20187;-77
2021/11/01 21:48:17;;;;;;;9.13;1.75;;;;;;;;;;4992173;28;20187;-77
2021/11/01 21:50:45;;;;;;;4.95;1.83;;;;;;;;;;4991155;28;20198;-77
2021/11/01 21:53:11;;;;;;;12.05;2.30;;;;;;;;;;4991997;28;20195;-78
2021/11/01 21:55:37;;;;;;;10.38;2.25;;;;;;;;;;4991955;28;20263;-78
2021/11/01 21:58:34;;;;;;;9.35;2.22;;;;;;;;;;4990306;28;20194;-78
2021/11/01 22:20:00;;;;;;;4.40;2.22;;;;;;;;;;4991569;28;20203;-76
2021/11/01 22:25:32;;;;;;;6.23;3.20;;;;;;;;;;4992215;28;20196;-77
2021/11/01 22:41:11;;;;;;;5.43;2.67;;;;;;;;;;4993882;28;20684;-79
2021/11/01 22:57:05;;;;;;;2.83;2.38;;;;;;;;;;4999211;28;20186;-78
2021/11/01 22:59:31;;;;;;;3.58;2.53;;;;;;;;;;4997814;28;20199;-78
2021/11/01 23:01:57;;;;;;;7.70;3.08;;;;;;;;;;4996697;28;20671;-78
2021/11/01 23:31:51;;;;;;;7.00;2.70;;;;;;;;;;4999998;28;20548;-77
2021/11/01 23:34:17;;;;;;;6.00;2.25;;;;;;;;;;4999400;28;20652;-77
2021/11/01 23:36:44;;;;;;;4.35;2.40;;;;;;;;;;4999375;28;20183;-77
2021/11/01 23:39:11;;;;;;;3.92;1.73;;;;;;;;;;4997755;28;20324;-78
2021/11/01 23:41:38;;;;;;;4.45;2.00;;;;;;;;;;4998720;28;20190;-78
2021/11/01 23:44:04;;;;;;;5.15;2.45;;;;;;;;;;4996871;28;20171;-78
2021/11/01 23:46:31;;;;;;;5.30;1.98;;;;;;;;;;4998748;28;20183;-79
2021/11/01 23:48:57;;;;;;;4.90;2.10;;;;;;;;;;4996272;28;20182;-79
2021/11/01 23:51:35;;;;;;;5.72;2.15;;;;;;;;;;4995197;28;20186;-78
2021/11/01 23:56:34;;;;;;;5.13;1.90;;;;;;;;;;4996488;28;20168;-79
2021/11/01 23:59:00;;;;;;;4.78;2.22;;;;;;;;;;4995007;28;20215;-78
